ADDS METAR Data INFO
IDs: Format: Raw Decoded Include TAF

Data at: 1530 UTC 18 Jun 2018

KDUH 181515Z AUTO 27008G16KT 10SM CLR 32/22 A2999 RMK AO2 T03150216
KDUH 181455Z AUTO 25011G17KT 10SM CLR 31/22 A2999 RMK AO2 T03140221
KDUH 181435Z AUTO 26008G16KT 230V290 10SM CLR 32/22 A2999 RMK AO2 T03150222
KDUH 181415Z AUTO 25008KT 10SM CLR 31/22 A2999 RMK AO2 T03060222
KDUH 181355Z AUTO 26006G14KT 10SM CLR 30/22 A2999 RMK AO2 T03030222
KDUH 181335Z AUTO 25008KT 10SM CLR 29/22 A2999 RMK AO2 T02940219
KDUH 181315Z AUTO 26008KT 230V290 10SM CLR 30/22 A2999 RMK AO2 T02970219
KDUH 181255Z AUTO 26007G14KT 10SM CLR 30/22 A2999 RMK AO2 T02950220
KDUH 181235Z AUTO 24009KT 10SM CLR 29/22 A2998 RMK AO2 T02910219
KDUH 181215Z AUTO 24011G16KT 10SM CLR 29/22 A2998 RMK AO2 T02870217
KDUH 181155Z AUTO 24008G15KT 10SM CLR 28/22 A2998 RMK AO2 T02820216 10282 20270
KDUH 181135Z AUTO 24007KT 210V270 10SM CLR 28/22 A2998 RMK AO2 T02780216
KDUH 181115Z AUTO 24007KT 10SM CLR 28/22 A2998 RMK AO2 T02750216
KDUH 181055Z AUTO 24006KT 10SM CLR 27/22 A2999 RMK AO2 T02710215
KDUH 181035Z AUTO 24006KT 10SM CLR 27/22 A2999 RMK AO2 T02710215
KDUH 181015Z AUTO 24006G14KT 10SM CLR 27/22 A2999 RMK AO2 T02720215
KDUH 180955Z AUTO 24007KT 10SM CLR 27/22 A2999 RMK AO2 T02700215
KDUH 180935Z AUTO 23007KT 10SM CLR 27/22 A2999 RMK AO2 T02700215
KDUH 180915Z AUTO 24006KT 10SM CLR 27/22 A2999 RMK AO2 T02710215
KDUH 180855Z AUTO 23006KT 10SM CLR 27/22 A2999 RMK AO2 T02710215
KDUH 180835Z AUTO 24006KT 10SM CLR 27/21 A2998 RMK AO2 T02710213
KDUH 180815Z AUTO 25006KT 10SM CLR 27/21 A2999 RMK AO2 T02720212
KDUH 180755Z AUTO 24005KT 10SM CLR 28/21 A2999 RMK AO2 T02750212
KDUH 180735Z AUTO 24005KT 10SM CLR 28/21 A2999 RMK AO2 T02760212
KDUH 180715Z AUTO 23005KT 10SM CLR 27/21 A2999 RMK AO2 T02740212
KDUH 180655Z AUTO 22004KT 10SM CLR 27/21 A2999 RMK AO2 T02730212
KDUH 180635Z AUTO 23005KT 10SM CLR 28/21 A3000 RMK AO2 T02750212
KDUH 180615Z AUTO 22003KT 10SM CLR 27/21 A3000 RMK AO2 T02740211
KDUH 180555Z AUTO 23004KT 10SM CLR 28/21 A3001 RMK AO2 T02750210 10327 20275 403470198
KDUH 180535Z AUTO 24004KT 10SM CLR 28/21 A3001 RMK AO2 T02770210
KDUH 180515Z AUTO 24004KT 10SM CLR 28/21 A3001 RMK AO2 T02780210
KDUH 180455Z AUTO 24005KT 10SM CLR 28/21 A3001 RMK AO2 T02800210
KDUH 180435Z AUTO 22004KT 10SM CLR 28/21 A3001 RMK AO2 T02810209
KDUH 180415Z AUTO 22005KT 10SM CLR 28/21 A3000 RMK AO2 T02820209
KDUH 180355Z AUTO 21004KT 10SM CLR 28/21 A3000 RMK AO2 T02790210
KDUH 180335Z AUTO 22003KT 10SM CLR 28/21 A3000 RMK AO2 T02800210
KDUH 180315Z AUTO 00000KT 10SM CLR 28/21 A3000 RMK AO2 T02840208
KDUH 180255Z AUTO 00000KT 10SM CLR 28/21 A3000 RMK AO2 T02810208
KDUH 180235Z AUTO 21003KT 10SM CLR 29/21 A3000 RMK AO2 T02850206
KDUH 180215Z AUTO 00000KT 10SM CLR 29/21 A2999 RMK AO2 T02890206
KDUH 180155Z AUTO 00000KT 10SM CLR 29/20 A2999 RMK AO2 T02940204
KDUH 180135Z AUTO 20003KT 10SM CLR 30/20 A2998 RMK AO2 T02960203
KDUH 180115Z AUTO 21003KT 10SM CLR 30/20 A2998 RMK AO2 T03020202
KDUH 180055Z AUTO 22003KT 10SM CLR 31/20 A2997 RMK AO2 T03100197
KDUH 180035Z AUTO 00000KT 10SM CLR 32/20 A2998 RMK AO2 T03160195
KDUH 180015Z AUTO 23004KT 10SM CLR 32/19 A2998 RMK AO2 T03220191
KDUH 172355Z AUTO 23005KT 10SM CLR 33/19 A2998 RMK AO2 T03280191 10347 20328
KDUH 172335Z AUTO 24004KT 10SM CLR 33/19 A2998 RMK AO2 T03310193
KDUH 172315Z AUTO 22005KT 10SM CLR 34/19 A2998 RMK AO2 T03350192
KDUH 172255Z AUTO 23005KT 10SM SCT065 SCT070 33/19 A2998 RMK AO2 T03330192
KDUH 172235Z AUTO 22006KT 10SM CLR 34/19 A2999 RMK AO2 T03380191
KDUH 172215Z AUTO 23004KT 10SM CLR 34/20 A2999 RMK AO2 T03400198
KDUH 172155Z AUTO 22004KT 10SM CLR 34/20 A2999 RMK AO2 T03400196
KDUH 172135Z AUTO 22006KT 10SM SCT085 34/20 A3000 RMK AO2 T03390196
KDUH 172115Z AUTO 24007KT 190V250 10SM CLR 34/20 A3000 RMK AO2 T03430198
KDUH 172055Z AUTO 22007KT 10SM CLR 34/20 A3000 RMK AO2 T03430202
KDUH 172035Z AUTO 22007KT 10SM SCT055 SCT065 SCT110 34/21 A3000 RMK AO2 T03420211
KDUH 172015Z AUTO 21007KT 10SM SCT055 SCT075 BKN110 33/20 A3001 RMK AO2 T03320203
KDUH 171955Z AUTO 22007KT 10SM SCT055 SCT075 SCT080 34/20 A3002 RMK AO2 T03400203
KDUH 171935Z AUTO 22006KT 10SM SCT055 SCT075 SCT090 34/20 A3002 RMK AO2 T03430202
KDUH 171915Z AUTO 22009KT 10SM SCT055 SCT075 34/20 A3002 RMK AO2 T03410201
KDUH 171855Z AUTO 22006KT 10SM SCT050 35/21 A3002 RMK AO2 T03450206
KDUH 171835Z AUTO 20008KT 10SM SCT050 34/21 A3002 RMK AO2 T03420210
KDUH 171815Z AUTO 24005KT 10SM SCT050 34/21 A3003 RMK AO2 T03420209
KDUH 171756Z AUTO 26007KT 10SM CLR 34/20 A3003 RMK AO2 T03430203 10345 20248
KDUH 171735Z AUTO 22006KT 10SM SCT050 34/21 A3004 RMK AO2 T03410208
KDUH 171715Z AUTO 22006KT 10SM SCT050 35/20 A3004 RMK AO2 T03450202
KDUH 171655Z AUTO 20007KT 10SM SCT050 34/20 A3005 RMK AO2 T03410201
KDUH 171635Z AUTO 25006KT 10SM SCT049 34/21 A3005 RMK AO2 T03370207
KDUH 171615Z AUTO 23005KT 10SM SCT048 34/21 A3006 RMK AO2 T03360206
KDUH 171555Z AUTO 27004KT 10SM SCT046 33/21 A3007 RMK AO2 T03340206
KDUH 171535Z AUTO 28006KT 10SM SCT043 SCT050 33/21 A3007 RMK AO2 T03260210
KDUH 171515Z AUTO 28009KT 10SM SCT041 SCT047 33/22 A3007 RMK AO2 T03250215
KDUH 171455Z AUTO 27006KT 10SM CLR 32/22 A3007 RMK AO2 T03220215
KDUH 171435Z AUTO 27005KT 10SM CLR 32/22 A3007 RMK AO2 T03190222
KDUH 171415Z AUTO 28003KT 10SM CLR 31/23 A3007 RMK AO2 T03120228
KDUH 171355Z AUTO 26003KT 10SM CLR 30/22 A3007 RMK AO2 T03040224
KDUH 171335Z AUTO 28005KT 10SM CLR 30/22 A3007 RMK AO2 T03000224
KDUH 171315Z AUTO 28005KT 10SM CLR 29/22 A3006 RMK AO2 T02900218
KDUH 171255Z AUTO 28003KT 10SM CLR 28/22 A3006 RMK AO2 T02780216
KDUH 171235Z AUTO 00000KT 10SM CLR 27/21 A3006 RMK AO2 T02660211
KDUH 171215Z AUTO 00000KT 10SM CLR 26/21 A3005 RMK AO2 T02580207
KDUH 171155Z AUTO 00000KT 10SM SCT048 25/20 A3005 RMK AO2 T02460203 10246 20198
KDUH 171135Z AUTO 00000KT 10SM SCT048 23/20 A3005 RMK AO2 T02270197
KDUH 171116Z AUTO 00000KT 10SM CLR 22/19 A3005 RMK AO2 T02150190
KDUH 171055Z AUTO 00000KT 10SM CLR 21/19 A3006 RMK AO2 T02060185
KDUH 171035Z AUTO 00000KT 10SM CLR 20/18 A3005 RMK AO2 T02000180
KDUH 171015Z AUTO 00000KT 10SM CLR 20/18 A3004 RMK AO2 T01990179
KDUH 170955Z AUTO 00000KT 10SM CLR 20/18 A3003 RMK AO2 T02000178
KDUH 170935Z AUTO 00000KT 10SM CLR 20/18 A3003 RMK AO2 T02000180
KDUH 170915Z AUTO 00000KT 10SM CLR 20/18 A3002 RMK AO2 T02000180
KDUH 170855Z AUTO 00000KT 10SM CLR 20/18 A3002 RMK AO2 T02000180
KDUH 170835Z AUTO 00000KT 10SM CLR 20/18 A3002 RMK AO2 T02010180
KDUH 170815Z AUTO 00000KT 10SM CLR 20/18 A3002 RMK AO2 T02010180
KDUH 170755Z AUTO 00000KT 10SM CLR 20/18 A3002 RMK AO2 T02020178
KDUH 170735Z AUTO 00000KT 10SM CLR 20/18 A3002 RMK AO2 T02020178
KDUH 170715Z AUTO 00000KT 10SM CLR 21/18 A3000 RMK AO2 T02060181
KDUH 170655Z AUTO 00000KT 10SM CLR 21/18 A3000 RMK AO2 T02080182
KDUH 170635Z AUTO 00000KT 10SM CLR 21/18 A2999 RMK AO2 T02090181
KDUH 170615Z AUTO 00000KT 10SM CLR 21/18 A3000 RMK AO2 T02100184
KDUH 170555Z AUTO 00000KT 10SM CLR 21/19 A3000 RMK AO2 T02100185 10285 20210 403170180
KDUH 170536Z AUTO 00000KT 10SM CLR 21/19 A3000 RMK AO2 T02120185
KDUH 170515Z AUTO 00000KT 10SM CLR 22/19 A3001 RMK AO2 T02150186
KDUH 170455Z AUTO 00000KT 10SM CLR 22/19 A3001 RMK AO2 T02160186
KDUH 170435Z AUTO 00000KT 10SM CLR 22/19 A3002 RMK AO2 T02150188
KDUH 170415Z AUTO 00000KT 10SM CLR 22/19 A3002 RMK AO2 T02150186
KDUH 170355Z AUTO 00000KT 10SM CLR 22/19 A3002 RMK AO2 T02180186
KDUH 170335Z AUTO 00000KT 10SM CLR 22/19 A3002 RMK AO2 T02190186